createdAt,value
2022-09-24T00:02:21.157Z,3.00
2022-09-24T00:04:49.508Z,3.17
2022-09-24T00:07:17.779Z,2.80
2022-09-24T00:09:46.041Z,2.95
2022-09-24T00:12:15.735Z,3.10
2022-09-24T00:14:44.035Z,2.80
2022-09-24T00:17:12.300Z,3.08
2022-09-24T00:19:40.601Z,3.25
2022-09-24T00:22:08.899Z,2.80
2022-09-24T00:24:54.801Z,3.28
2022-09-24T00:27:24.411Z,3.28
2022-09-24T00:29:52.715Z,3.00
2022-09-24T00:32:22.419Z,3.50
2022-09-24T00:34:52.050Z,3.00
2022-09-24T00:37:21.273Z,3.38
2022-09-24T00:39:49.970Z,3.65
2022-09-24T00:42:19.855Z,3.40
2022-09-24T00:44:55.460Z,3.35
2022-09-24T00:47:36.864Z,3.38
2022-09-24T00:50:21.933Z,3.70
2022-09-24T00:52:54.225Z,3.30
2022-09-24T00:55:24.759Z,3.38
2022-09-24T00:57:57.522Z,3.38
2022-09-24T01:00:27.660Z,3.55
2022-09-24T01:03:02.614Z,3.20
2022-09-24T01:05:31.149Z,2.97
2022-09-24T01:07:59.931Z,3.15
2022-09-24T01:10:51.076Z,3.10
2022-09-24T01:13:48.274Z,3.45
2022-09-24T01:16:28.447Z,3.25
2022-09-24T01:19:03.851Z,3.15
2022-09-24T01:21:38.659Z,3.42
2022-09-24T01:24:40.360Z,3.15
2022-09-24T01:27:14.999Z,3.17
2022-09-24T01:32:31.610Z,2.95
2022-09-24T01:35:04.403Z,3.10
2022-09-24T01:37:35.935Z,3.20
2022-09-24T01:40:08.137Z,3.60
2022-09-24T01:42:38.272Z,3.47
2022-09-24T01:45:10.240Z,3.60
2022-09-24T01:47:41.566Z,3.42
2022-09-24T01:50:12.735Z,3.72
2022-09-24T01:52:46.105Z,3.67
2022-09-24T01:55:18.650Z,3.50
2022-09-24T01:57:51.626Z,3.40
2022-09-24T02:00:22.940Z,3.40
2022-09-24T02:02:58.756Z,3.03
2022-09-24T02:05:32.746Z,3.67
2022-09-24T02:08:06.861Z,3.58
2022-09-24T02:10:40.158Z,3.75
2022-09-24T02:13:13.946Z,3.38
2022-09-24T02:15:47.435Z,3.40
2022-09-24T02:18:19.034Z,3.50
2022-09-24T02:20:48.389Z,3.25
2022-09-24T02:23:20.027Z,3.35
2022-09-24T02:25:54.854Z,3.45
2022-09-24T02:28:23.122Z,3.40
2022-09-24T02:30:58.505Z,3.42
2022-09-24T02:33:45.583Z,3.30
2022-09-24T02:36:13.871Z,3.40
2022-09-24T02:38:43.421Z,3.30
2022-09-24T02:41:11.737Z,3.08
2022-09-24T02:43:41.018Z,3.40
2022-09-24T02:46:11.082Z,3.25
2022-09-24T02:48:39.376Z,3.35
2022-09-24T02:51:07.663Z,3.45
2022-09-24T02:53:36.036Z,3.40
2022-09-24T02:56:04.748Z,3.80
2022-09-24T02:58:33.039Z,3.80
2022-09-24T03:01:01.302Z,3.40
2022-09-24T03:03:31.357Z,3.67
2022-09-24T03:05:59.618Z,3.30
2022-09-24T03:08:28.112Z,3.67
2022-09-24T03:10:56.524Z,3.50
2022-09-24T03:13:25.036Z,3.47
2022-09-24T03:15:53.349Z,3.78
2022-09-24T03:18:21.702Z,4.05
2022-09-24T03:20:58.721Z,3.33
2022-09-24T03:23:27.350Z,3.53
2022-09-24T03:25:58.592Z,3.58
2022-09-24T03:28:28.053Z,3.80
2022-09-24T03:31:01.268Z,3.30
2022-09-24T03:33:32.140Z,3.25
2022-09-24T03:36:03.587Z,3.15
2022-09-24T03:38:32.211Z,3.63
2022-09-24T03:41:01.433Z,3.85
2022-09-24T03:43:29.750Z,3.92
2022-09-24T03:45:58.402Z,3.90
2022-09-24T03:48:27.915Z,3.67
2022-09-24T03:50:56.270Z,4.07
2022-09-24T03:53:25.906Z,3.80
2022-09-24T03:55:56.447Z,3.72
2022-09-24T03:58:25.491Z,4.00
2022-09-24T04:00:54.522Z,4.72
2022-09-24T04:03:23.340Z,3.85
2022-09-24T04:05:51.818Z,4.03
2022-09-24T04:08:20.477Z,4.22
2022-09-24T04:10:51.662Z,4.00
2022-09-24T04:13:21.143Z,3.75
2022-09-24T04:15:50.273Z,4.10
2022-09-24T04:18:18.957Z,4.13
2022-09-24T04:20:47.365Z,4.20
2022-09-24T04:23:16.104Z,4.10
2022-09-24T04:25:44.945Z,4.00
2022-09-24T04:28:14.580Z,4.38
2022-09-24T04:30:42.866Z,4.47
2022-09-24T04:33:11.857Z,4.95
2022-09-24T04:35:40.144Z,4.20
2022-09-24T04:38:08.440Z,4.30
2022-09-24T04:40:36.783Z,4.68
2022-09-24T04:43:06.046Z,4.35
2022-09-24T04:45:35.892Z,4.43
2022-09-24T04:48:04.185Z,5.13
2022-09-24T04:50:34.064Z,4.63
2022-09-24T04:53:03.244Z,4.22
2022-09-24T04:55:32.273Z,4.88
2022-09-24T04:58:00.797Z,4.50
2022-09-24T05:00:33.424Z,4.72
2022-09-24T05:03:04.616Z,4.47
2022-09-24T05:05:33.707Z,4.65
2022-09-24T05:08:02.339Z,4.75
2022-09-24T05:10:33.106Z,4.60
2022-09-24T05:13:02.156Z,4.50
2022-09-24T05:15:30.486Z,4.80
2022-09-24T05:17:59.064Z,4.35
2022-09-24T05:20:28.691Z,4.22
2022-09-24T05:22:56.996Z,3.92
2022-09-24T05:25:25.363Z,4.95
2022-09-24T05:27:54.813Z,4.43
2022-09-24T05:30:25.586Z,4.30
2022-09-24T05:32:53.871Z,4.28
2022-09-24T05:35:23.179Z,4.60
2022-09-24T05:37:54.092Z,4.45
2022-09-24T05:40:41.067Z,4.53
2022-09-24T05:43:09.463Z,4.35
2022-09-24T05:45:37.729Z,4.45
2022-09-24T05:48:06.495Z,4.78
2022-09-24T05:50:35.285Z,4.57
2022-09-24T05:53:06.213Z,4.63
2022-09-24T05:55:34.507Z,4.80
2022-09-24T05:58:07.163Z,4.15
2022-09-24T06:00:36.437Z,4.53
2022-09-24T06:03:07.742Z,4.35
2022-09-24T06:05:36.447Z,4.55
2022-09-24T06:08:08.019Z,4.60
2022-09-24T06:10:37.066Z,4.70
2022-09-24T06:13:05.661Z,4.40
2022-09-24T06:15:34.964Z,4.32
2022-09-24T06:18:03.235Z,4.82
2022-09-24T06:20:31.873Z,4.95
2022-09-24T06:23:00.512Z,4.38
2022-09-24T06:25:31.257Z,5.10
2022-09-24T06:28:01.278Z,4.57
2022-09-24T06:30:30.597Z,4.50
2022-09-24T06:33:05.037Z,6.55
2022-09-24T06:35:35.726Z,5.28
2022-09-24T06:38:04.439Z,6.63
2022-09-24T06:40:37.575Z,5.28
2022-09-24T06:43:06.815Z,5.15
2022-09-24T06:45:36.177Z,4.60
2022-09-24T06:48:06.270Z,7.68
2022-09-24T06:50:36.154Z,5.88
2022-09-24T06:53:07.271Z,5.68
2022-09-24T06:55:37.779Z,5.70
2022-09-24T06:58:07.611Z,6.32
2022-09-24T07:00:37.223Z,5.35
2022-09-24T07:03:06.239Z,5.25
2022-09-24T07:05:39.562Z,5.85
2022-09-24T07:08:10.966Z,5.50
2022-09-24T07:10:43.386Z,6.07
2022-09-24T07:13:13.090Z,5.18
2022-09-24T07:15:41.888Z,5.63
2022-09-24T07:18:10.341Z,5.97
2022-09-24T07:20:38.734Z,6.00
2022-09-24T07:23:08.240Z,5.25
2022-09-24T07:25:36.943Z,6.50
2022-09-24T07:28:08.691Z,6.10
2022-09-24T07:30:37.616Z,6.40
2022-09-24T07:33:07.375Z,5.63
2022-09-24T07:35:37.999Z,6.20
2022-09-24T07:38:08.800Z,5.82
2022-09-24T07:40:37.129Z,6.53
2022-09-24T07:43:11.714Z,6.53
2022-09-24T07:48:08.307Z,5.55
2022-09-24T07:50:40.508Z,5.65
2022-09-24T07:53:10.867Z,4.70
2022-09-24T07:55:41.120Z,4.63
2022-09-24T07:58:14.518Z,5.22
2022-09-24T08:00:43.532Z,5.65
2022-09-24T08:03:11.846Z,5.25
2022-09-24T08:05:45.111Z,7.05
2022-09-24T08:08:13.615Z,6.38
2022-09-24T08:10:42.958Z,6.25
2022-09-24T08:13:12.656Z,6.00
2022-09-24T08:15:41.031Z,6.88
2022-09-24T08:18:09.653Z,7.07
2022-09-24T08:20:39.263Z,6.15
2022-09-24T08:23:09.870Z,6.32
2022-09-24T08:25:38.170Z,5.90
2022-09-24T08:28:08.126Z,5.32
2022-09-24T08:30:38.660Z,6.22
2022-09-24T08:33:07.461Z,6.05
2022-09-24T08:35:36.237Z,5.72
2022-09-24T08:38:04.526Z,6.53
2022-09-24T08:40:38.105Z,6.05
2022-09-24T08:43:16.290Z,5.80
2022-09-24T08:46:07.972Z,6.65
2022-09-24T08:48:42.743Z,7.00
2022-09-24T08:51:17.803Z,7.88
2022-09-24T08:53:52.058Z,7.45
2022-09-24T08:56:26.003Z,7.10
2022-09-24T08:58:59.519Z,7.22
2022-09-24T09:01:37.015Z,8.88
2022-09-24T09:04:26.207Z,8.05
2022-09-24T09:07:07.966Z,8.30
2022-09-24T09:09:45.569Z,7.55
2022-09-24T09:12:19.398Z,7.18
2022-09-24T09:14:55.360Z,6.00
2022-09-24T09:17:42.149Z,5.85
2022-09-24T09:20:17.264Z,6.28
2022-09-24T09:22:49.077Z,6.30
2022-09-24T09:25:21.806Z,7.13
2022-09-24T09:28:01.747Z,5.75
2022-09-24T09:30:39.543Z,6.70
2022-09-24T09:33:22.288Z,6.05
2022-09-24T09:35:59.362Z,5.40
2022-09-24T09:38:34.960Z,5.38
2022-09-24T09:41:13.674Z,5.72
2022-09-24T09:43:42.743Z,6.85
2022-09-24T09:46:15.517Z,6.05
2022-09-24T09:48:50.307Z,6.80
2022-09-24T09:51:22.712Z,6.82
2022-09-24T09:53:59.303Z,5.55
2022-09-24T09:56:30.696Z,5.57
2022-09-24T09:59:07.167Z,5.50
2022-09-24T10:01:40.546Z,5.90
2022-09-24T10:04:28.522Z,6.03
2022-09-24T10:07:05.972Z,6.47
2022-09-24T10:09:34.587Z,6.20
2022-09-24T10:12:10.471Z,4.70
2022-09-24T10:14:38.736Z,5.47
2022-09-24T10:17:07.178Z,5.18
2022-09-24T10:19:39.012Z,6.65
2022-09-24T10:22:16.315Z,5.60
2022-09-24T10:24:45.218Z,5.75
2022-09-24T10:27:15.265Z,4.78
2022-09-24T10:30:00.987Z,5.15
2022-09-24T10:32:30.238Z,5.68
2022-09-24T10:35:01.246Z,4.50
2022-09-24T10:37:30.382Z,5.07
2022-09-24T10:40:00.032Z,5.93
2022-09-24T10:42:30.274Z,5.20
2022-09-24T10:45:02.104Z,4.90
2022-09-24T10:47:40.467Z,4.20
2022-09-24T10:50:28.047Z,4.85
2022-09-24T10:53:01.661Z,4.28
2022-09-24T10:55:40.943Z,4.70
2022-09-24T10:58:29.442Z,3.90
2022-09-24T11:01:09.990Z,4.40
2022-09-24T11:04:05.437Z,4.03
2022-09-24T11:06:46.397Z,3.90
2022-09-24T11:09:26.151Z,3.70
2022-09-24T11:12:05.238Z,3.70
2022-09-24T11:14:48.466Z,4.72
2022-09-24T11:17:39.810Z,4.85
2022-09-24T11:20:21.316Z,4.55
2022-09-24T11:23:08.769Z,4.90
2022-09-24T11:25:44.920Z,4.43
2022-09-24T11:28:45.559Z,3.92
2022-09-24T11:31:23.888Z,5.63
2022-09-24T11:34:06.848Z,4.45
2022-09-24T11:36:47.948Z,5.60
2022-09-24T11:39:34.881Z,5.20
2022-09-24T11:42:18.289Z,5.10
2022-09-24T11:45:18.664Z,4.47
2022-09-24T11:48:04.408Z,5.15
2022-09-24T11:50:47.407Z,4.68
2022-09-24T11:53:22.439Z,4.82
2022-09-24T11:55:57.846Z,4.63
2022-09-24T11:58:30.165Z,4.70
2022-09-24T12:01:04.380Z,5.07
2022-09-24T12:03:39.884Z,4.75
2022-09-24T12:06:12.923Z,5.95
2022-09-24T12:08:47.940Z,6.30
2022-09-24T12:11:23.203Z,5.90
2022-09-24T12:13:56.972Z,5.88
2022-09-24T12:16:28.489Z,6.32
2022-09-24T12:19:02.403Z,5.22
2022-09-24T12:21:35.274Z,4.78
2022-09-24T12:24:12.974Z,4.25
2022-09-24T12:26:43.934Z,5.63
2022-09-24T12:29:49.547Z,5.43
2022-09-24T12:35:12.549Z,5.20
2022-09-24T12:37:43.976Z,5.03
2022-09-24T12:40:30.038Z,4.78
2022-09-24T12:43:03.373Z,4.53
2022-09-24T12:45:34.101Z,4.55
2022-09-24T12:48:03.618Z,5.57
2022-09-24T12:50:35.187Z,4.40
2022-09-24T12:53:03.637Z,4.57
2022-09-24T12:55:35.418Z,4.80
2022-09-24T12:58:07.861Z,3.75
2022-09-24T13:00:42.067Z,4.45
2022-09-24T13:03:32.956Z,4.45
2022-09-24T13:06:01.889Z,4.05
2022-09-24T13:08:38.012Z,4.10
2022-09-24T13:11:27.517Z,4.45
2022-09-24T13:14:04.145Z,4.07
2022-09-24T13:16:38.474Z,3.53
2022-09-24T13:19:21.075Z,4.70
2022-09-24T13:21:55.322Z,4.93
2022-09-24T13:24:31.134Z,4.22
2022-09-24T13:27:22.807Z,3.92
2022-09-24T13:30:04.726Z,4.00
2022-09-24T13:32:38.824Z,3.72
2022-09-24T13:35:21.663Z,4.20
2022-09-24T13:37:55.657Z,3.97
2022-09-24T13:40:29.155Z,4.07
2022-09-24T13:43:04.112Z,4.33
2022-09-24T13:45:36.145Z,4.18
2022-09-24T13:48:06.500Z,4.20
2022-09-24T13:50:38.202Z,4.05
2022-09-24T13:53:13.531Z,3.95
2022-09-24T13:55:46.550Z,4.22
2022-09-24T13:58:28.474Z,4.25
2022-09-24T14:00:59.800Z,4.20
2022-09-24T14:03:32.077Z,4.28
2022-09-24T14:06:01.541Z,3.80
2022-09-24T14:08:30.916Z,4.05
2022-09-24T14:11:09.716Z,4.40
2022-09-24T14:13:45.661Z,4.07
2022-09-24T14:16:18.943Z,4.32
2022-09-24T14:18:48.193Z,4.55
2022-09-24T14:21:22.698Z,4.47
2022-09-24T14:26:28.906Z,4.93
2022-09-24T14:28:59.288Z,4.35
2022-09-24T14:31:29.236Z,4.50
2022-09-24T14:33:59.206Z,4.85
2022-09-24T14:36:29.238Z,4.85
2022-09-24T14:39:02.498Z,4.45
2022-09-24T14:41:33.536Z,4.68
2022-09-24T14:44:07.757Z,4.20
2022-09-24T14:46:40.909Z,5.63
2022-09-24T14:49:21.418Z,5.57
2022-09-24T14:51:55.630Z,5.07
2022-09-24T14:54:29.861Z,4.70
2022-09-24T14:57:10.049Z,5.07
2022-09-24T14:59:41.558Z,4.55
2022-09-24T15:02:22.304Z,4.63
2022-09-24T15:04:53.099Z,4.90
2022-09-24T15:07:25.195Z,4.78
2022-09-24T15:09:55.867Z,4.72
2022-09-24T15:12:31.003Z,4.43
2022-09-24T15:15:00.989Z,5.15
2022-09-24T15:17:33.982Z,4.30
2022-09-24T15:20:03.189Z,4.80
2022-09-24T15:22:32.697Z,4.65
2022-09-24T15:25:02.317Z,4.53
2022-09-24T15:27:32.417Z,4.20
2022-09-24T15:30:02.466Z,4.15
2022-09-24T15:32:35.059Z,4.30
2022-09-24T15:35:08.372Z,4.55
2022-09-24T15:37:40.076Z,4.35
2022-09-24T15:40:16.473Z,4.53
2022-09-24T15:42:44.800Z,4.00
2022-09-24T15:45:18.001Z,4.10
2022-09-24T15:47:47.914Z,4.35
2022-09-24T15:50:16.599Z,4.60
2022-09-24T15:52:49.425Z,4.43
2022-09-24T15:55:20.601Z,4.50
2022-09-24T15:57:49.064Z,4.10
2022-09-24T16:00:19.338Z,4.35
2022-09-24T16:02:52.220Z,4.25
2022-09-24T16:05:21.213Z,4.60
2022-09-24T16:07:49.572Z,4.40
2022-09-24T16:10:18.749Z,4.20
2022-09-24T16:12:47.437Z,4.20
2022-09-24T16:15:17.172Z,4.70
2022-09-24T16:17:45.609Z,4.63
2022-09-24T16:20:15.218Z,4.75
2022-09-24T16:22:43.534Z,4.15
2022-09-24T16:25:11.813Z,5.03
2022-09-24T16:27:40.838Z,5.03
2022-09-24T16:30:09.979Z,5.40
2022-09-24T16:32:38.267Z,4.85
2022-09-24T16:35:07.616Z,5.47
2022-09-24T16:37:37.324Z,6.07
2022-09-24T16:40:06.667Z,5.38
2022-09-24T16:42:35.342Z,5.97
2022-09-24T16:45:03.815Z,5.85
2022-09-24T16:47:32.116Z,5.47
2022-09-24T16:50:00.397Z,5.63
2022-09-24T16:52:31.453Z,6.05
2022-09-24T16:55:01.149Z,6.20
2022-09-24T16:57:29.434Z,5.88
2022-09-24T16:59:57.773Z,5.80
2022-09-24T17:02:26.184Z,5.93
2022-09-24T17:04:59.318Z,5.70
2022-09-24T17:07:30.685Z,6.40
2022-09-24T17:10:13.057Z,5.88
2022-09-24T17:12:44.535Z,5.68
2022-09-24T17:15:14.853Z,6.25
2022-09-24T17:17:49.467Z,6.55
2022-09-24T17:20:19.159Z,6.25
2022-09-24T17:22:48.419Z,7.05
2022-09-24T17:25:17.007Z,6.03
2022-09-24T17:27:46.763Z,6.50
2022-09-24T17:30:15.995Z,6.32
2022-09-24T17:32:44.312Z,6.57
2022-09-24T17:35:13.535Z,5.70
2022-09-24T17:37:41.880Z,6.30
2022-09-24T17:40:11.053Z,5.95
2022-09-24T17:42:46.992Z,6.13
2022-09-24T17:45:16.853Z,6.47
2022-09-24T17:47:57.295Z,6.28
2022-09-24T17:50:25.726Z,6.53
2022-09-24T17:52:53.998Z,5.88
2022-09-24T17:55:22.307Z,6.07
2022-09-24T17:57:50.585Z,6.22
2022-09-24T18:00:20.347Z,6.57
2022-09-24T18:02:48.629Z,6.57
2022-09-24T18:05:16.963Z,7.13
2022-09-24T18:07:45.246Z,7.30
2022-09-24T18:10:13.531Z,7.43
2022-09-24T18:12:41.806Z,7.13
2022-09-24T18:15:10.573Z,7.05
2022-09-24T18:17:40.209Z,8.18
2022-09-24T18:20:09.092Z,7.50
2022-09-24T18:22:37.430Z,7.90
2022-09-24T18:25:07.193Z,7.20
2022-09-24T18:27:36.280Z,6.82
2022-09-24T18:30:05.722Z,5.82
2022-09-24T18:32:34.647Z,6.80
2022-09-24T18:35:04.902Z,6.55
2022-09-24T18:37:35.972Z,6.03
2022-09-24T18:40:05.374Z,6.00
2022-09-24T18:42:34.784Z,5.82
2022-09-24T18:45:03.128Z,6.13
2022-09-24T18:47:31.740Z,5.80
2022-09-24T18:50:00.024Z,5.50
2022-09-24T18:52:29.702Z,5.05
2022-09-24T18:54:57.999Z,5.70
2022-09-24T18:57:26.288Z,4.82
2022-09-24T18:59:54.611Z,4.97
2022-09-24T19:02:25.210Z,5.85
2022-09-24T19:04:53.709Z,5.45
2022-09-24T19:07:22.034Z,5.97
2022-09-24T19:09:51.705Z,5.15
2022-09-24T19:12:21.128Z,5.97
2022-09-24T19:14:49.670Z,5.15
2022-09-24T19:17:17.990Z,4.88
2022-09-24T19:19:51.541Z,5.07
2022-09-24T19:22:20.772Z,5.25
2022-09-24T19:24:50.774Z,4.70
2022-09-24T19:27:19.072Z,5.05
2022-09-24T19:29:47.328Z,5.22
2022-09-24T19:32:15.610Z,4.80
2022-09-24T19:34:43.858Z,5.70
2022-09-24T19:37:12.119Z,5.03
2022-09-24T19:39:40.397Z,5.32
2022-09-24T19:42:10.057Z,4.95
2022-09-24T19:44:38.314Z,5.13
2022-09-24T19:47:08.192Z,5.03
2022-09-24T19:49:36.513Z,5.82
2022-09-24T19:52:04.910Z,5.18
2022-09-24T19:54:33.204Z,5.15
2022-09-24T19:57:01.565Z,5.45
2022-09-24T19:59:31.522Z,5.90
2022-09-24T20:01:59.934Z,5.45
2022-09-24T20:04:28.215Z,5.50
2022-09-24T20:06:56.487Z,5.40
2022-09-24T20:09:24.878Z,5.47
2022-09-24T20:11:53.181Z,5.13
2022-09-24T20:14:21.661Z,5.80
2022-09-24T20:16:51.325Z,5.18
2022-09-24T20:19:22.000Z,5.57
2022-09-24T20:21:52.442Z,5.22
2022-09-24T20:24:20.787Z,6.05
2022-09-24T20:27:06.674Z,5.53
2022-09-24T20:29:34.943Z,6.00
2022-09-24T20:32:04.755Z,5.97
2022-09-24T20:34:34.359Z,5.90
2022-09-24T20:37:03.083Z,6.05
2022-09-24T20:39:32.191Z,6.07
2022-09-24T20:42:02.118Z,5.65
2022-09-24T20:44:30.857Z,6.28
2022-09-24T20:46:59.516Z,5.57
2022-09-24T20:49:29.831Z,6.07
2022-09-24T20:51:58.402Z,5.70
2022-09-24T20:54:28.143Z,5.85
2022-09-24T20:56:56.694Z,6.10
2022-09-24T20:59:26.503Z,6.85
2022-09-24T21:01:55.296Z,6.40
2022-09-24T21:04:24.209Z,6.57
2022-09-24T21:06:54.579Z,6.78
2022-09-24T21:09:23.139Z,6.93
2022-09-24T21:11:53.116Z,6.22
2022-09-24T21:14:22.250Z,6.85
2022-09-24T21:16:50.624Z,6.75
2022-09-24T21:19:19.098Z,6.85
2022-09-24T21:21:47.405Z,7.78
2022-09-24T21:24:17.421Z,7.00
2022-09-24T21:26:45.863Z,8.27
2022-09-24T21:29:17.282Z,7.28
2022-09-24T21:31:47.851Z,7.82
2022-09-24T21:34:18.173Z,7.15
2022-09-24T21:36:46.481Z,7.43
2022-09-24T21:39:19.306Z,7.45
2022-09-24T21:41:49.880Z,6.95
2022-09-24T21:44:19.519Z,7.68
2022-09-24T21:46:50.862Z,7.30
2022-09-24T21:49:19.885Z,7.70
2022-09-24T21:51:48.346Z,7.07
2022-09-24T21:54:19.039Z,7.63
2022-09-24T21:56:47.913Z,7.55
2022-09-24T21:59:34.646Z,7.38
2022-09-24T22:02:03.854Z,8.18
2022-09-24T22:04:33.137Z,8.32
2022-09-24T22:07:01.513Z,7.50
2022-09-24T22:09:32.415Z,7.93
2022-09-24T22:12:02.267Z,8.20
2022-09-24T22:14:30.882Z,9.00
2022-09-24T22:16:59.469Z,8.73
2022-09-24T22:19:27.928Z,8.02
2022-09-24T22:21:56.243Z,8.48
2022-09-24T22:24:24.514Z,9.20
2022-09-24T22:26:54.261Z,7.63
2022-09-24T22:29:22.842Z,8.40
2022-09-24T22:31:51.190Z,8.27
2022-09-24T22:34:37.005Z,7.90
2022-09-24T22:37:06.771Z,8.57
2022-09-24T22:39:36.001Z,8.38
2022-09-24T22:42:06.009Z,7.93
2022-09-24T22:44:34.334Z,8.85
2022-09-24T22:47:02.665Z,8.45
2022-09-24T22:49:31.748Z,7.40
2022-09-24T22:52:00.447Z,7.35
2022-09-24T22:54:28.729Z,7.75
2022-09-24T22:56:57.003Z,7.28
2022-09-24T22:59:26.647Z,8.27
2022-09-24T23:01:54.996Z,6.82
2022-09-24T23:04:24.052Z,7.43
2022-09-24T23:06:52.333Z,7.20
2022-09-24T23:09:20.942Z,8.35
2022-09-24T23:11:49.200Z,7.82
2022-09-24T23:14:18.017Z,7.68
2022-09-24T23:16:47.716Z,6.88
2022-09-24T23:19:17.717Z,7.13
2022-09-24T23:21:46.103Z,6.93
2022-09-24T23:24:16.998Z,6.40
2022-09-24T23:26:46.100Z,7.15
2022-09-24T23:29:15.474Z,8.45
2022-09-24T23:31:44.090Z,7.70
2022-09-24T23:34:14.612Z,6.97
2022-09-24T23:36:45.041Z,7.82
2022-09-24T23:39:13.438Z,7.72
2022-09-24T23:41:41.808Z,6.72
2022-09-24T23:44:10.405Z,7.72
2022-09-24T23:46:38.906Z,7.85
2022-09-24T23:49:07.279Z,7.70
2022-09-24T23:51:37.005Z,6.85
2022-09-24T23:54:08.638Z,8.48
2022-09-24T23:56:36.940Z,7.00
2022-09-24T23:59:05.529Z,6.90
